sensor_id;sensor_type;location;lat;lon;timestamp;P1;durP1;ratioP1;P2;durP2;ratioP2
26540;SDS011;14206;50.202;10.948;2023-04-24T00:01:06;0.90;;;0.80;;
26540;SDS011;14206;50.202;10.948;2023-04-24T00:03:34;0.70;;;0.70;;
26540;SDS011;14206;50.202;10.948;2023-04-24T00:06:01;1.20;;;1.10;;
26540;SDS011;14206;50.202;10.948;2023-04-24T00:08:29;2.13;;;1.20;;
26540;SDS011;14206;50.202;10.948;2023-04-24T00:10:56;1.20;;;1.10;;
26540;SDS011;14206;50.202;10.948;2023-04-24T00:13:23;2.15;;;1.10;;
26540;SDS011;14206;50.202;10.948;2023-04-24T00:15:50;3.08;;;1.00;;
26540;SDS011;14206;50.202;10.948;2023-04-24T00:18:17;1.65;;;1.20;;
26540;SDS011;14206;50.202;10.948;2023-04-24T00:20:44;1.08;;;1.00;;
26540;SDS011;14206;50.202;10.948;2023-04-24T00:23:11;2.60;;;1.20;;
26540;SDS011;14206;50.202;10.948;2023-04-24T00:25:38;1.20;;;1.10;;
26540;SDS011;14206;50.202;10.948;2023-04-24T00:28:05;1.02;;;0.85;;
26540;SDS011;14206;50.202;10.948;2023-04-24T00:30:32;1.45;;;0.90;;
26540;SDS011;14206;50.202;10.948;2023-04-24T00:32:59;1.15;;;0.70;;
26540;SDS011;14206;50.202;10.948;2023-04-24T00:35:26;0.70;;;0.70;;
26540;SDS011;14206;50.202;10.948;2023-04-24T00:37:52;0.90;;;0.90;;
26540;SDS011;14206;50.202;10.948;2023-04-24T00:40:19;0.70;;;0.70;;
26540;SDS011;14206;50.202;10.948;2023-04-24T00:42:46;0.60;;;0.60;;
26540;SDS011;14206;50.202;10.948;2023-04-24T00:45:13;0.70;;;0.70;;
26540;SDS011;14206;50.202;10.948;2023-04-24T00:47:41;0.68;;;0.68;;
26540;SDS011;14206;50.202;10.948;2023-04-24T00:50:08;0.60;;;0.60;;
26540;SDS011;14206;50.202;10.948;2023-04-24T00:52:35;0.70;;;0.70;;
26540;SDS011;14206;50.202;10.948;2023-04-24T00:55:03;2.50;;;1.20;;
26540;SDS011;14206;50.202;10.948;2023-04-24T00:57:31;1.40;;;1.30;;
26540;SDS011;14206;50.202;10.948;2023-04-24T00:59:59;1.80;;;1.50;;
26540;SDS011;14206;50.202;10.948;2023-04-24T01:02:25;2.22;;;1.33;;
26540;SDS011;14206;50.202;10.948;2023-04-24T01:04:53;1.92;;;1.30;;
26540;SDS011;14206;50.202;10.948;2023-04-24T01:07:19;3.10;;;1.58;;
26540;SDS011;14206;50.202;10.948;2023-04-24T01:09:50;1.40;;;1.30;;
26540;SDS011;14206;50.202;10.948;2023-04-24T01:12:19;1.55;;;1.27;;
26540;SDS011;14206;50.202;10.948;2023-04-24T01:14:46;1.95;;;1.40;;
26540;SDS011;14206;50.202;10.948;2023-04-24T01:17:14;2.45;;;1.30;;
26540;SDS011;14206;50.202;10.948;2023-04-24T01:19:42;1.52;;;1.20;;
26540;SDS011;14206;50.202;10.948;2023-04-24T01:22:12;2.13;;;1.20;;
26540;SDS011;14206;50.202;10.948;2023-04-24T01:24:41;2.83;;;1.40;;
26540;SDS011;14206;50.202;10.948;2023-04-24T01:27:11;1.20;;;1.00;;
26540;SDS011;14206;50.202;10.948;2023-04-24T01:29:38;1.20;;;1.10;;
26540;SDS011;14206;50.202;10.948;2023-04-24T01:32:08;1.20;;;1.10;;
26540;SDS011;14206;50.202;10.948;2023-04-24T01:34:35;3.25;;;1.50;;
26540;SDS011;14206;50.202;10.948;2023-04-24T01:37:03;1.85;;;1.20;;
26540;SDS011;14206;50.202;10.948;2023-04-24T01:39:31;1.60;;;1.20;;
26540;SDS011;14206;50.202;10.948;2023-04-24T01:41:59;1.88;;;1.20;;
26540;SDS011;14206;50.202;10.948;2023-04-24T01:44:26;1.30;;;1.20;;
26540;SDS011;14206;50.202;10.948;2023-04-24T01:46:54;2.15;;;1.30;;
26540;SDS011;14206;50.202;10.948;2023-04-24T01:49:22;1.95;;;1.20;;
26540;SDS011;14206;50.202;10.948;2023-04-24T01:51:49;1.48;;;1.00;;
26540;SDS011;14206;50.202;10.948;2023-04-24T01:54:16;1.58;;;1.13;;
26540;SDS011;14206;50.202;10.948;2023-04-24T01:56:43;2.60;;;1.00;;
26540;SDS011;14206;50.202;10.948;2023-04-24T01:59:10;1.35;;;0.95;;
26540;SDS011;14206;50.202;10.948;2023-04-24T02:01:38;2.03;;;1.25;;
26540;SDS011;14206;50.202;10.948;2023-04-24T02:04:06;2.47;;;1.08;;
26540;SDS011;14206;50.202;10.948;2023-04-24T02:06:36;0.95;;;0.90;;
26540;SDS011;14206;50.202;10.948;2023-04-24T02:09:03;1.38;;;1.20;;
26540;SDS011;14206;50.202;10.948;2023-04-24T02:11:30;2.17;;;1.10;;
26540;SDS011;14206;50.202;10.948;2023-04-24T02:13:57;1.73;;;0.90;;
26540;SDS011;14206;50.202;10.948;2023-04-24T02:16:24;2.13;;;1.33;;
26540;SDS011;14206;50.202;10.948;2023-04-24T02:18:51;1.23;;;1.10;;
26540;SDS011;14206;50.202;10.948;2023-04-24T02:21:18;2.05;;;0.90;;
26540;SDS011;14206;50.202;10.948;2023-04-24T02:23:45;1.75;;;1.10;;
26540;SDS011;14206;50.202;10.948;2023-04-24T02:26:12;2.45;;;0.98;;
26540;SDS011;14206;50.202;10.948;2023-04-24T02:28:39;1.55;;;1.10;;
26540;SDS011;14206;50.202;10.948;2023-04-24T02:31:06;1.40;;;1.00;;
26540;SDS011;14206;50.202;10.948;2023-04-24T02:33:33;2.15;;;0.90;;
26540;SDS011;14206;50.202;10.948;2023-04-24T02:36:00;3.20;;;1.20;;
26540;SDS011;14206;50.202;10.948;2023-04-24T02:38:27;1.10;;;1.00;;
26540;SDS011;14206;50.202;10.948;2023-04-24T02:40:54;1.25;;;0.95;;
26540;SDS011;14206;50.202;10.948;2023-04-24T02:43:21;1.25;;;1.05;;
26540;SDS011;14206;50.202;10.948;2023-04-24T02:45:48;1.63;;;0.85;;
26540;SDS011;14206;50.202;10.948;2023-04-24T02:48:15;1.92;;;1.13;;
26540;SDS011;14206;50.202;10.948;2023-04-24T02:50:43;2.97;;;0.90;;
26540;SDS011;14206;50.202;10.948;2023-04-24T02:53:11;3.05;;;0.73;;
26540;SDS011;14206;50.202;10.948;2023-04-24T02:55:37;0.95;;;0.70;;
26540;SDS011;14206;50.202;10.948;2023-04-24T02:58:04;0.60;;;0.60;;
26540;SDS011;14206;50.202;10.948;2023-04-24T03:00:32;0.70;;;0.70;;
26540;SDS011;14206;50.202;10.948;2023-04-24T03:02:59;1.55;;;0.80;;
26540;SDS011;14206;50.202;10.948;2023-04-24T03:05:26;0.75;;;0.70;;
26540;SDS011;14206;50.202;10.948;2023-04-24T03:07:53;0.60;;;0.60;;
26540;SDS011;14206;50.202;10.948;2023-04-24T03:10:20;1.08;;;0.70;;
26540;SDS011;14206;50.202;10.948;2023-04-24T03:12:48;0.60;;;0.60;;
26540;SDS011;14206;50.202;10.948;2023-04-24T03:15:17;0.75;;;0.70;;
26540;SDS011;14206;50.202;10.948;2023-04-24T03:22:07;3.00;;;0.60;;
26540;SDS011;14206;50.202;10.948;2023-04-24T03:24:36;0.57;;;0.57;;
26540;SDS011;14206;50.202;10.948;2023-04-24T03:27:03;0.60;;;0.60;;
26540;SDS011;14206;50.202;10.948;2023-04-24T03:29:52;0.57;;;0.57;;
26540;SDS011;14206;50.202;10.948;2023-04-24T03:32:26;0.88;;;0.82;;
26540;SDS011;14206;50.202;10.948;2023-04-24T03:34:53;0.60;;;0.60;;
26540;SDS011;14206;50.202;10.948;2023-04-24T03:37:20;0.65;;;0.57;;
26540;SDS011;14206;50.202;10.948;2023-04-24T03:40:01;2.15;;;0.75;;
26540;SDS011;14206;50.202;10.948;2023-04-24T03:42:29;0.60;;;0.60;;
26540;SDS011;14206;50.202;10.948;2023-04-24T03:44:56;1.20;;;0.70;;
26540;SDS011;14206;50.202;10.948;2023-04-24T03:47:28;1.73;;;0.88;;
26540;SDS011;14206;50.202;10.948;2023-04-24T03:49:58;1.35;;;0.90;;
26540;SDS011;14206;50.202;10.948;2023-04-24T03:52:25;2.25;;;1.00;;
26540;SDS011;14206;50.202;10.948;2023-04-24T03:54:52;1.17;;;0.98;;
26540;SDS011;14206;50.202;10.948;2023-04-24T03:57:18;1.85;;;1.20;;
26540;SDS011;14206;50.202;10.948;2023-04-24T03:59:59;1.10;;;1.00;;
26540;SDS011;14206;50.202;10.948;2023-04-24T04:02:26;2.03;;;1.20;;
26540;SDS011;14206;50.202;10.948;2023-04-24T04:04:53;1.42;;;1.20;;
26540;SDS011;14206;50.202;10.948;2023-04-24T04:07:20;2.58;;;1.33;;
26540;SDS011;14206;50.202;10.948;2023-04-24T04:09:47;2.35;;;1.50;;
26540;SDS011;14206;50.202;10.948;2023-04-24T04:12:14;2.35;;;1.30;;
26540;SDS011;14206;50.202;10.948;2023-04-24T04:14:42;2.15;;;1.30;;
26540;SDS011;14206;50.202;10.948;2023-04-24T04:17:09;3.25;;;1.42;;
26540;SDS011;14206;50.202;10.948;2023-04-24T04:19:36;1.75;;;1.23;;
26540;SDS011;14206;50.202;10.948;2023-04-24T04:22:03;1.52;;;1.10;;
26540;SDS011;14206;50.202;10.948;2023-04-24T04:24:38;1.95;;;1.00;;
26540;SDS011;14206;50.202;10.948;2023-04-24T04:27:08;2.63;;;1.35;;
26540;SDS011;14206;50.202;10.948;2023-04-24T04:29:45;1.83;;;1.23;;
26540;SDS011;14206;50.202;10.948;2023-04-24T04:32:14;2.42;;;1.10;;
26540;SDS011;14206;50.202;10.948;2023-04-24T04:34:42;2.97;;;1.40;;
26540;SDS011;14206;50.202;10.948;2023-04-24T04:37:11;1.50;;;1.30;;
26540;SDS011;14206;50.202;10.948;2023-04-24T04:40:01;1.85;;;1.13;;
26540;SDS011;14206;50.202;10.948;2023-04-24T04:42:47;1.65;;;1.20;;
26540;SDS011;14206;50.202;10.948;2023-04-24T04:45:14;1.55;;;1.15;;
26540;SDS011;14206;50.202;10.948;2023-04-24T04:48:06;1.90;;;1.08;;
26540;SDS011;14206;50.202;10.948;2023-04-24T04:50:35;1.42;;;1.08;;
26540;SDS011;14206;50.202;10.948;2023-04-24T04:53:06;1.65;;;1.10;;
26540;SDS011;14206;50.202;10.948;2023-04-24T04:55:36;2.45;;;1.00;;
26540;SDS011;14206;50.202;10.948;2023-04-24T04:58:13;2.72;;;1.40;;
26540;SDS011;14206;50.202;10.948;2023-04-24T05:00:40;1.65;;;1.10;;
26540;SDS011;14206;50.202;10.948;2023-04-24T05:03:16;1.10;;;1.00;;
26540;SDS011;14206;50.202;10.948;2023-04-24T05:05:51;2.55;;;1.00;;
26540;SDS011;14206;50.202;10.948;2023-04-24T05:08:19;1.15;;;1.00;;
26540;SDS011;14206;50.202;10.948;2023-04-24T05:10:53;2.03;;;1.07;;
26540;SDS011;14206;50.202;10.948;2023-04-24T05:13:21;1.33;;;1.00;;
26540;SDS011;14206;50.202;10.948;2023-04-24T05:16:08;1.85;;;1.02;;
26540;SDS011;14206;50.202;10.948;2023-04-24T05:18:35;3.45;;;1.20;;
26540;SDS011;14206;50.202;10.948;2023-04-24T05:21:03;2.15;;;1.10;;
26540;SDS011;14206;50.202;10.948;2023-04-24T05:23:29;2.53;;;1.00;;
26540;SDS011;14206;50.202;10.948;2023-04-24T05:25:57;3.22;;;1.30;;
26540;SDS011;14206;50.202;10.948;2023-04-24T05:28:24;2.28;;;1.15;;
26540;SDS011;14206;50.202;10.948;2023-04-24T05:31:03;1.52;;;0.88;;
26540;SDS011;14206;50.202;10.948;2023-04-24T05:33:30;3.03;;;1.05;;
26540;SDS011;14206;50.202;10.948;2023-04-24T05:35:57;1.92;;;1.05;;
26540;SDS011;14206;50.202;10.948;2023-04-24T05:38:24;1.52;;;1.13;;
26540;SDS011;14206;50.202;10.948;2023-04-24T05:40:51;3.25;;;1.20;;
26540;SDS011;14206;50.202;10.948;2023-04-24T05:43:18;2.88;;;1.15;;
26540;SDS011;14206;50.202;10.948;2023-04-24T05:45:45;1.27;;;0.80;;
26540;SDS011;14206;50.202;10.948;2023-04-24T05:48:12;1.88;;;1.02;;
26540;SDS011;14206;50.202;10.948;2023-04-24T05:50:39;2.60;;;0.90;;
26540;SDS011;14206;50.202;10.948;2023-04-24T05:53:06;3.10;;;1.17;;
26540;SDS011;14206;50.202;10.948;2023-04-24T05:55:35;1.38;;;1.05;;
26540;SDS011;14206;50.202;10.948;2023-04-24T05:58:02;1.33;;;1.13;;
26540;SDS011;14206;50.202;10.948;2023-04-24T06:00:29;1.27;;;1.00;;
26540;SDS011;14206;50.202;10.948;2023-04-24T06:03:02;1.10;;;0.85;;
26540;SDS011;14206;50.202;10.948;2023-04-24T06:05:31;1.55;;;1.00;;
26540;SDS011;14206;50.202;10.948;2023-04-24T06:07:58;1.92;;;1.05;;
26540;SDS011;14206;50.202;10.948;2023-04-24T06:10:30;3.08;;;1.30;;
26540;SDS011;14206;50.202;10.948;2023-04-24T06:12:58;1.30;;;0.90;;
26540;SDS011;14206;50.202;10.948;2023-04-24T06:15:29;1.10;;;1.00;;
26540;SDS011;14206;50.202;10.948;2023-04-24T06:18:02;1.73;;;1.00;;
26540;SDS011;14206;50.202;10.948;2023-04-24T06:20:29;1.50;;;1.05;;
26540;SDS011;14206;50.202;10.948;2023-04-24T06:22:56;3.42;;;0.95;;
26540;SDS011;14206;50.202;10.948;2023-04-24T06:25:24;1.60;;;1.00;;
26540;SDS011;14206;50.202;10.948;2023-04-24T06:27:52;1.13;;;0.88;;
26540;SDS011;14206;50.202;10.948;2023-04-24T06:30:20;1.48;;;1.00;;
26540;SDS011;14206;50.202;10.948;2023-04-24T06:32:47;1.70;;;0.90;;
26540;SDS011;14206;50.202;10.948;2023-04-24T06:35:14;1.83;;;0.98;;
26540;SDS011;14206;50.202;10.948;2023-04-24T06:37:41;1.50;;;1.02;;
26540;SDS011;14206;50.202;10.948;2023-04-24T06:40:09;3.25;;;1.05;;
26540;SDS011;14206;50.202;10.948;2023-04-24T06:42:36;1.67;;;1.05;;
26540;SDS011;14206;50.202;10.948;2023-04-24T06:45:04;2.40;;;1.10;;
26540;SDS011;14206;50.202;10.948;2023-04-24T06:47:31;1.25;;;1.00;;
26540;SDS011;14206;50.202;10.948;2023-04-24T06:49:58;3.53;;;1.13;;
26540;SDS011;14206;50.202;10.948;2023-04-24T06:52:25;2.80;;;1.00;;
26540;SDS011;14206;50.202;10.948;2023-04-24T06:54:52;1.52;;;1.00;;
26540;SDS011;14206;50.202;10.948;2023-04-24T06:57:18;1.67;;;0.98;;
26540;SDS011;14206;50.202;10.948;2023-04-24T06:59:46;2.28;;;1.00;;
26540;SDS011;14206;50.202;10.948;2023-04-24T07:02:13;2.10;;;1.10;;
26540;SDS011;14206;50.202;10.948;2023-04-24T07:04:39;1.80;;;0.90;;
26540;SDS011;14206;50.202;10.948;2023-04-24T07:07:07;1.42;;;1.00;;
26540;SDS011;14206;50.202;10.948;2023-04-24T07:09:35;1.38;;;0.98;;
26540;SDS011;14206;50.202;10.948;2023-04-24T07:12:04;2.58;;;1.00;;
26540;SDS011;14206;50.202;10.948;2023-04-24T07:14:32;1.63;;;1.00;;
26540;SDS011;14206;50.202;10.948;2023-04-24T07:16:58;3.17;;;0.93;;
26540;SDS011;14206;50.202;10.948;2023-04-24T07:19:25;1.65;;;0.85;;
26540;SDS011;14206;50.202;10.948;2023-04-24T07:21:52;1.10;;;1.00;;
26540;SDS011;14206;50.202;10.948;2023-04-24T07:24:21;1.20;;;1.10;;
26540;SDS011;14206;50.202;10.948;2023-04-24T07:26:51;1.55;;;1.30;;
26540;SDS011;14206;50.202;10.948;2023-04-24T07:29:18;3.13;;;1.20;;
26540;SDS011;14206;50.202;10.948;2023-04-24T07:31:45;2.05;;;1.35;;
26540;SDS011;14206;50.202;10.948;2023-04-24T07:34:12;2.25;;;1.20;;
26540;SDS011;14206;50.202;10.948;2023-04-24T07:36:40;1.50;;;1.20;;
26540;SDS011;14206;50.202;10.948;2023-04-24T07:39:07;1.67;;;1.08;;
26540;SDS011;14206;50.202;10.948;2023-04-24T07:41:34;2.65;;;1.10;;
26540;SDS011;14206;50.202;10.948;2023-04-24T07:44:01;1.33;;;0.98;;
26540;SDS011;14206;50.202;10.948;2023-04-24T07:46:29;1.20;;;1.00;;
26540;SDS011;14206;50.202;10.948;2023-04-24T07:48:56;1.35;;;1.00;;
26540;SDS011;14206;50.202;10.948;2023-04-24T07:51:39;1.02;;;0.90;;
26540;SDS011;14206;50.202;10.948;2023-04-24T07:54:06;1.52;;;1.02;;
26540;SDS011;14206;50.202;10.948;2023-04-24T07:56:33;1.58;;;0.85;;
26540;SDS011;14206;50.202;10.948;2023-04-24T07:59:00;1.10;;;1.00;;
26540;SDS011;14206;50.202;10.948;2023-04-24T08:01:27;2.33;;;0.80;;
26540;SDS011;14206;50.202;10.948;2023-04-24T08:03:54;1.40;;;0.85;;
26540;SDS011;14206;50.202;10.948;2023-04-24T08:06:22;1.48;;;1.00;;
26540;SDS011;14206;50.202;10.948;2023-04-24T08:08:49;1.58;;;0.95;;
26540;SDS011;14206;50.202;10.948;2023-04-24T08:11:17;1.38;;;1.00;;
26540;SDS011;14206;50.202;10.948;2023-04-24T08:13:44;0.80;;;0.80;;
26540;SDS011;14206;50.202;10.948;2023-04-24T08:16:11;1.80;;;1.35;;
26540;SDS011;14206;50.202;10.948;2023-04-24T08:18:38;1.27;;;1.17;;
26540;SDS011;14206;50.202;10.948;2023-04-24T08:21:05;1.25;;;0.90;;
26540;SDS011;14206;50.202;10.948;2023-04-24T08:23:32;2.08;;;1.10;;
26540;SDS011;14206;50.202;10.948;2023-04-24T08:25:59;3.13;;;1.38;;
26540;SDS011;14206;50.202;10.948;2023-04-24T08:28:25;1.77;;;1.20;;
26540;SDS011;14206;50.202;10.948;2023-04-24T08:30:52;1.55;;;1.17;;
26540;SDS011;14206;50.202;10.948;2023-04-24T08:33:22;1.30;;;1.20;;
26540;SDS011;14206;50.202;10.948;2023-04-24T08:35:49;1.40;;;1.05;;
26540;SDS011;14206;50.202;10.948;2023-04-24T08:38:16;1.77;;;1.10;;
26540;SDS011;14206;50.202;10.948;2023-04-24T08:40:43;1.63;;;1.00;;
26540;SDS011;14206;50.202;10.948;2023-04-24T08:43:12;1.50;;;1.30;;
26540;SDS011;14206;50.202;10.948;2023-04-24T08:45:40;1.90;;;1.30;;
26540;SDS011;14206;50.202;10.948;2023-04-24T08:48:07;1.30;;;1.20;;
26540;SDS011;14206;50.202;10.948;2023-04-24T08:50:52;1.90;;;1.30;;
26540;SDS011;14206;50.202;10.948;2023-04-24T08:53:20;1.88;;;1.30;;
26540;SDS011;14206;50.202;10.948;2023-04-24T08:55:47;4.72;;;1.50;;
26540;SDS011;14206;50.202;10.948;2023-04-24T08:58:18;2.00;;;1.20;;
26540;SDS011;14206;50.202;10.948;2023-04-24T09:00:45;1.20;;;1.10;;
26540;SDS011;14206;50.202;10.948;2023-04-24T09:03:14;2.53;;;1.60;;
26540;SDS011;14206;50.202;10.948;2023-04-24T09:05:47;1.80;;;1.58;;
26540;SDS011;14206;50.202;10.948;2023-04-24T09:08:18;1.98;;;1.60;;
26540;SDS011;14206;50.202;10.948;2023-04-24T09:10:46;1.70;;;1.60;;
26540;SDS011;14206;50.202;10.948;2023-04-24T09:13:16;1.92;;;1.25;;
26540;SDS011;14206;50.202;10.948;2023-04-24T09:15:46;1.33;;;1.20;;
26540;SDS011;14206;50.202;10.948;2023-04-24T09:18:13;2.15;;;1.50;;
26540;SDS011;14206;50.202;10.948;2023-04-24T09:23:30;1.98;;;1.63;;
26540;SDS011;14206;50.202;10.948;2023-04-24T09:25:58;1.85;;;1.35;;
26540;SDS011;14206;50.202;10.948;2023-04-24T09:28:34;1.40;;;1.30;;
26540;SDS011;14206;50.202;10.948;2023-04-24T09:33:33;2.70;;;1.58;;
26540;SDS011;14206;50.202;10.948;2023-04-24T09:36:00;3.92;;;1.77;;
26540;SDS011;14206;50.202;10.948;2023-04-24T09:38:37;2.58;;;1.48;;
26540;SDS011;14206;50.202;10.948;2023-04-24T09:41:05;2.70;;;2.13;;
26540;SDS011;14206;50.202;10.948;2023-04-24T09:43:34;2.55;;;2.10;;
26540;SDS011;14206;50.202;10.948;2023-04-24T09:46:05;2.28;;;2.08;;
26540;SDS011;14206;50.202;10.948;2023-04-24T09:48:35;2.88;;;2.33;;
26540;SDS011;14206;50.202;10.948;2023-04-24T09:51:04;2.78;;;2.10;;
26540;SDS011;14206;50.202;10.948;2023-04-24T09:53:38;2.30;;;2.10;;
26540;SDS011;14206;50.202;10.948;2023-04-24T09:56:12;2.45;;;1.90;;
26540;SDS011;14206;50.202;10.948;2023-04-24T09:58:39;2.00;;;1.88;;
26540;SDS011;14206;50.202;10.948;2023-04-24T10:01:06;1.98;;;1.83;;
26540;SDS011;14206;50.202;10.948;2023-04-24T10:03:33;3.25;;;1.90;;
26540;SDS011;14206;50.202;10.948;2023-04-24T10:06:01;2.13;;;1.92;;
26540;SDS011;14206;50.202;10.948;2023-04-24T10:08:35;3.58;;;1.80;;
26540;SDS011;14206;50.202;10.948;2023-04-24T10:11:04;3.92;;;2.00;;
26540;SDS011;14206;50.202;10.948;2023-04-24T10:13:33;3.53;;;2.10;;
26540;SDS011;14206;50.202;10.948;2023-04-24T10:16:01;1.80;;;1.60;;
26540;SDS011;14206;50.202;10.948;2023-04-24T10:18:29;2.05;;;1.85;;
26540;SDS011;14206;50.202;10.948;2023-04-24T10:20:57;4.10;;;2.10;;
26540;SDS011;14206;50.202;10.948;2023-04-24T10:23:25;2.00;;;1.77;;
26540;SDS011;14206;50.202;10.948;2023-04-24T10:25:52;2.10;;;1.90;;
26540;SDS011;14206;50.202;10.948;2023-04-24T10:28:20;2.53;;;2.28;;
26540;SDS011;14206;50.202;10.948;2023-04-24T10:30:48;2.28;;;2.08;;
26540;SDS011;14206;50.202;10.948;2023-04-24T10:33:16;3.53;;;2.17;;
26540;SDS011;14206;50.202;10.948;2023-04-24T10:35:44;2.67;;;2.00;;
26540;SDS011;14206;50.202;10.948;2023-04-24T10:38:16;3.17;;;2.20;;
26540;SDS011;14206;50.202;10.948;2023-04-24T10:40:50;2.00;;;1.90;;
26540;SDS011;14206;50.202;10.948;2023-04-24T10:43:17;2.30;;;2.10;;
26540;SDS011;14206;50.202;10.948;2023-04-24T10:46:04;3.33;;;1.90;;
26540;SDS011;14206;50.202;10.948;2023-04-24T10:48:32;2.47;;;1.98;;
26540;SDS011;14206;50.202;10.948;2023-04-24T10:50:59;2.67;;;1.90;;
26540;SDS011;14206;50.202;10.948;2023-04-24T10:53:28;2.40;;;1.55;;
26540;SDS011;14206;50.202;10.948;2023-04-24T10:56:05;3.13;;;1.58;;
26540;SDS011;14206;50.202;10.948;2023-04-24T10:58:37;1.73;;;1.50;;
26540;SDS011;14206;50.202;10.948;2023-04-24T11:01:04;1.80;;;1.70;;
26540;SDS011;14206;50.202;10.948;2023-04-24T11:03:32;2.00;;;1.80;;
26540;SDS011;14206;50.202;10.948;2023-04-24T11:06:09;1.90;;;1.50;;
26540;SDS011;14206;50.202;10.948;2023-04-24T11:08:39;3.05;;;1.70;;
26540;SDS011;14206;50.202;10.948;2023-04-24T11:11:14;1.98;;;1.40;;
26540;SDS011;14206;50.202;10.948;2023-04-24T11:18:52;2.00;;;1.80;;
26540;SDS011;14206;50.202;10.948;2023-04-24T11:27:12;1.77;;;1.67;;
26540;SDS011;14206;50.202;10.948;2023-04-24T11:29:41;2.30;;;2.10;;
26540;SDS011;14206;50.202;10.948;2023-04-24T11:32:33;1.42;;;1.33;;
26540;SDS011;14206;50.202;10.948;2023-04-24T11:34:58;2.00;;;1.80;;
26540;SDS011;14206;50.202;10.948;2023-04-24T11:37:37;3.13;;;1.80;;
26540;SDS011;14206;50.202;10.948;2023-04-24T11:40:09;2.40;;;1.55;;
26540;SDS011;14206;50.202;10.948;2023-04-24T11:42:38;4.10;;;1.70;;
26540;SDS011;14206;50.202;10.948;2023-04-24T11:45:13;2.80;;;1.50;;
26540;SDS011;14206;50.202;10.948;2023-04-24T11:47:42;1.40;;;1.30;;
26540;SDS011;14206;50.202;10.948;2023-04-24T11:50:13;2.28;;;1.20;;
26540;SDS011;14206;50.202;10.948;2023-04-24T11:52:43;1.70;;;1.17;;
26540;SDS011;14206;50.202;10.948;2023-04-24T11:57:46;1.23;;;1.13;;
26540;SDS011;14206;50.202;10.948;2023-04-24T12:00:17;1.38;;;1.27;;
26540;SDS011;14206;50.202;10.948;2023-04-24T12:02:46;1.60;;;1.50;;
26540;SDS011;14206;50.202;10.948;2023-04-24T12:05:21;1.73;;;1.63;;
26540;SDS011;14206;50.202;10.948;2023-04-24T12:07:49;1.70;;;1.40;;
26540;SDS011;14206;50.202;10.948;2023-04-24T12:10:20;1.52;;;1.40;;
26540;SDS011;14206;50.202;10.948;2023-04-24T12:12:47;2.22;;;1.90;;
26540;SDS011;14206;50.202;10.948;2023-04-24T12:15:16;3.90;;;1.80;;
26540;SDS011;14206;50.202;10.948;2023-04-24T12:17:44;2.00;;;1.70;;
26540;SDS011;14206;50.202;10.948;2023-04-24T12:20:12;1.83;;;1.65;;
26540;SDS011;14206;50.202;10.948;2023-04-24T12:22:43;3.15;;;1.75;;
26540;SDS011;14206;50.202;10.948;2023-04-24T12:25:16;3.50;;;1.83;;
26540;SDS011;14206;50.202;10.948;2023-04-24T12:27:45;1.88;;;1.77;;
26540;SDS011;14206;50.202;10.948;2023-04-24T12:30:14;2.08;;;1.88;;
26540;SDS011;14206;50.202;10.948;2023-04-24T12:32:42;2.28;;;2.03;;
26540;SDS011;14206;50.202;10.948;2023-04-24T12:35:11;2.47;;;1.80;;
26540;SDS011;14206;50.202;10.948;2023-04-24T12:37:41;2.33;;;1.90;;
26540;SDS011;14206;50.202;10.948;2023-04-24T12:40:12;1.90;;;1.77;;
26540;SDS011;14206;50.202;10.948;2023-04-24T12:42:43;1.60;;;1.50;;
26540;SDS011;14206;50.202;10.948;2023-04-24T12:45:12;2.10;;;1.90;;
26540;SDS011;14206;50.202;10.948;2023-04-24T12:47:40;5.55;;;1.88;;
26540;SDS011;14206;50.202;10.948;2023-04-24T12:50:08;2.65;;;1.58;;
26540;SDS011;14206;50.202;10.948;2023-04-24T12:52:37;1.90;;;1.80;;
26540;SDS011;14206;50.202;10.948;2023-04-24T12:55:05;2.35;;;2.08;;
26540;SDS011;14206;50.202;10.948;2023-04-24T12:57:34;1.65;;;1.52;;
26540;SDS011;14206;50.202;10.948;2023-04-24T13:00:02;1.80;;;1.60;;
26540;SDS011;14206;50.202;10.948;2023-04-24T13:02:32;2.80;;;1.80;;
26540;SDS011;14206;50.202;10.948;2023-04-24T13:05:00;2.17;;;1.30;;
26540;SDS011;14206;50.202;10.948;2023-04-24T13:07:28;1.52;;;1.38;;
26540;SDS011;14206;50.202;10.948;2023-04-24T13:09:55;1.58;;;1.48;;
26540;SDS011;14206;50.202;10.948;2023-04-24T13:12:23;1.65;;;1.25;;
26540;SDS011;14206;50.202;10.948;2023-04-24T13:14:52;2.05;;;1.67;;
26540;SDS011;14206;50.202;10.948;2023-04-24T13:17:19;1.73;;;1.63;;
26540;SDS011;14206;50.202;10.948;2023-04-24T13:19:49;1.85;;;1.70;;
26540;SDS011;14206;50.202;10.948;2023-04-24T13:22:17;2.67;;;1.80;;
26540;SDS011;14206;50.202;10.948;2023-04-24T13:24:47;1.90;;;1.80;;
26540;SDS011;14206;50.202;10.948;2023-04-24T13:27:17;1.55;;;1.45;;
26540;SDS011;14206;50.202;10.948;2023-04-24T13:29:44;2.50;;;1.90;;
26540;SDS011;14206;50.202;10.948;2023-04-24T13:32:12;1.80;;;1.70;;
26540;SDS011;14206;50.202;10.948;2023-04-24T13:34:39;2.85;;;1.73;;
26540;SDS011;14206;50.202;10.948;2023-04-24T13:37:05;1.60;;;1.50;;
26540;SDS011;14206;50.202;10.948;2023-04-24T13:39:34;1.80;;;1.30;;
26540;SDS011;14206;50.202;10.948;2023-04-24T13:42:01;2.10;;;1.40;;
26540;SDS011;14206;50.202;10.948;2023-04-24T13:44:30;1.50;;;1.40;;
26540;SDS011;14206;50.202;10.948;2023-04-24T13:46:57;1.77;;;1.63;;
26540;SDS011;14206;50.202;10.948;2023-04-24T13:49:25;2.85;;;1.30;;
26540;SDS011;14206;50.202;10.948;2023-04-24T13:51:52;2.17;;;1.50;;
26540;SDS011;14206;50.202;10.948;2023-04-24T13:54:21;1.40;;;1.30;;
26540;SDS011;14206;50.202;10.948;2023-04-24T13:56:49;1.52;;;1.17;;
26540;SDS011;14206;50.202;10.948;2023-04-24T13:59:17;1.60;;;1.40;;
26540;SDS011;14206;50.202;10.948;2023-04-24T14:01:45;1.83;;;1.60;;
26540;SDS011;14206;50.202;10.948;2023-04-24T14:04:12;1.60;;;1.50;;
26540;SDS011;14206;50.202;10.948;2023-04-24T14:06:39;6.97;;;1.98;;
26540;SDS011;14206;50.202;10.948;2023-04-24T14:09:06;2.50;;;1.42;;
26540;SDS011;14206;50.202;10.948;2023-04-24T14:11:33;2.17;;;1.48;;
26540;SDS011;14206;50.202;10.948;2023-04-24T14:14:00;1.65;;;1.40;;
26540;SDS011;14206;50.202;10.948;2023-04-24T14:16:28;1.42;;;1.33;;
26540;SDS011;14206;50.202;10.948;2023-04-24T14:18:55;1.20;;;1.10;;
26540;SDS011;14206;50.202;10.948;2023-04-24T14:21:22;2.50;;;1.30;;
26540;SDS011;14206;50.202;10.948;2023-04-24T14:23:49;1.00;;;0.90;;
26540;SDS011;14206;50.202;10.948;2023-04-24T14:26:16;0.93;;;0.93;;
26540;SDS011;14206;50.202;10.948;2023-04-24T14:28:43;1.10;;;1.00;;
26540;SDS011;14206;50.202;10.948;2023-04-24T14:31:11;1.08;;;0.90;;
26540;SDS011;14206;50.202;10.948;2023-04-24T14:33:37;0.93;;;0.70;;
26540;SDS011;14206;50.202;10.948;2023-04-24T14:36:04;0.80;;;0.80;;
26540;SDS011;14206;50.202;10.948;2023-04-24T14:38:32;0.80;;;0.80;;
26540;SDS011;14206;50.202;10.948;2023-04-24T14:40:58;1.50;;;1.10;;
26540;SDS011;14206;50.202;10.948;2023-04-24T14:43:28;1.05;;;0.90;;
26540;SDS011;14206;50.202;10.948;2023-04-24T14:45:55;0.70;;;0.70;;
26540;SDS011;14206;50.202;10.948;2023-04-24T14:48:22;0.85;;;0.40;;
26540;SDS011;14206;50.202;10.948;2023-04-24T14:50:49;0.60;;;0.60;;
26540;SDS011;14206;50.202;10.948;2023-04-24T14:53:16;1.08;;;0.88;;
26540;SDS011;14206;50.202;10.948;2023-04-24T14:55:43;2.35;;;0.88;;
26540;SDS011;14206;50.202;10.948;2023-04-24T14:58:10;1.42;;;0.80;;
26540;SDS011;14206;50.202;10.948;2023-04-24T15:00:37;0.80;;;0.80;;
26540;SDS011;14206;50.202;10.948;2023-04-24T15:03:04;1.02;;;0.95;;
26540;SDS011;14206;50.202;10.948;2023-04-24T15:05:31;1.10;;;1.00;;